sensor_id;sensor_type;location;lat;lon;timestamp;pressure;altitude;pressure_sealevel;temperature;humidity
64889;BME280;51386;53.082;8.816;2023-03-30T00:01:01;100610.69;;;15.26;62.46
64889;BME280;51386;53.082;8.816;2023-03-30T00:03:30;100620.69;;;15.24;62.32
64889;BME280;51386;53.082;8.816;2023-03-30T00:06:03;100614.16;;;15.27;62.36
64889;BME280;51386;53.082;8.816;2023-03-30T00:08:31;100606.00;;;15.28;62.53
64889;BME280;51386;53.082;8.816;2023-03-30T00:11:00;100601.31;;;15.30;62.09
64889;BME280;51386;53.082;8.816;2023-03-30T00:13:28;100597.00;;;15.29;62.18
64889;BME280;51386;53.082;8.816;2023-03-30T00:15:55;100593.34;;;15.30;62.18
64889;BME280;51386;53.082;8.816;2023-03-30T00:18:23;100577.63;;;15.29;62.17
64889;BME280;51386;53.082;8.816;2023-03-30T00:20:52;100580.09;;;15.24;62.34
64889;BME280;51386;53.082;8.816;2023-03-30T00:23:19;100573.59;;;15.20;62.31
64889;BME280;51386;53.082;8.816;2023-03-30T00:25:46;100580.72;;;15.19;62.61
64889;BME280;51386;53.082;8.816;2023-03-30T00:28:13;100574.25;;;15.09;63.02
64889;BME280;51386;53.082;8.816;2023-03-30T00:30:40;100569.34;;;15.06;62.99
64889;BME280;51386;53.082;8.816;2023-03-30T00:33:07;100561.59;;;15.04;63.10
64889;BME280;51386;53.082;8.816;2023-03-30T00:35:34;100557.13;;;15.05;62.96
64889;BME280;51386;53.082;8.816;2023-03-30T00:38:03;100565.25;;;15.03;63.22
64889;BME280;51386;53.082;8.816;2023-03-30T00:40:33;100566.47;;;15.07;62.94
64889;BME280;51386;53.082;8.816;2023-03-30T00:43:03;100563.22;;;15.12;62.86
64889;BME280;51386;53.082;8.816;2023-03-30T00:45:34;100550.56;;;15.14;62.65
64889;BME280;51386;53.082;8.816;2023-03-30T00:48:06;100552.78;;;15.17;62.48
64889;BME280;51386;53.082;8.816;2023-03-30T00:50:38;100545.88;;;15.16;62.26
64889;BME280;51386;53.082;8.816;2023-03-30T00:53:13;100530.78;;;15.16;62.34
64889;BME280;51386;53.082;8.816;2023-03-30T00:55:45;100523.22;;;15.20;62.42
64889;BME280;51386;53.082;8.816;2023-03-30T00:58:16;100518.94;;;15.19;62.48
64889;BME280;51386;53.082;8.816;2023-03-30T01:00:44;100516.69;;;15.16;62.04
64889;BME280;51386;53.082;8.816;2023-03-30T01:03:19;100525.47;;;15.10;62.33
64889;BME280;51386;53.082;8.816;2023-03-30T01:05:50;100513.44;;;15.07;62.34
64889;BME280;51386;53.082;8.816;2023-03-30T01:08:19;100509.19;;;15.06;62.30
64889;BME280;51386;53.082;8.816;2023-03-30T01:10:50;100502.47;;;15.04;62.83
64889;BME280;51386;53.082;8.816;2023-03-30T01:13:19;100503.69;;;15.01;62.40
64889;BME280;51386;53.082;8.816;2023-03-30T01:16:03;100498.00;;;15.04;62.28
64889;BME280;51386;53.082;8.816;2023-03-30T01:18:48;100487.38;;;15.04;62.39
64889;BME280;51386;53.082;8.816;2023-03-30T01:21:57;100482.91;;;14.98;62.36
64889;BME280;51386;53.082;8.816;2023-03-30T01:25:13;100461.31;;;14.95;62.40
64889;BME280;51386;53.082;8.816;2023-03-30T01:28:15;100458.91;;;14.86;62.55
64889;BME280;51386;53.082;8.816;2023-03-30T01:31:10;100444.03;;;14.85;62.53
64889;BME280;51386;53.082;8.816;2023-03-30T01:34:19;100430.59;;;14.74;62.85
64889;BME280;51386;53.082;8.816;2023-03-30T01:37:23;100440.22;;;14.68;63.07
64889;BME280;51386;53.082;8.816;2023-03-30T01:40:06;100437.75;;;14.67;63.21
64889;BME280;51386;53.082;8.816;2023-03-30T01:42:42;100434.09;;;14.68;62.97
64889;BME280;51386;53.082;8.816;2023-03-30T01:45:22;100432.88;;;14.70;63.24
64889;BME280;51386;53.082;8.816;2023-03-30T01:47:59;100421.84;;;14.73;62.90
64889;BME280;51386;53.082;8.816;2023-03-30T01:50:34;100419.41;;;14.78;62.53
64889;BME280;51386;53.082;8.816;2023-03-30T01:53:12;100417.75;;;14.77;62.68
64889;BME280;51386;53.082;8.816;2023-03-30T01:55:48;100420.00;;;14.80;62.74
64889;BME280;51386;53.082;8.816;2023-03-30T01:58:24;100404.09;;;14.80;62.49
64889;BME280;51386;53.082;8.816;2023-03-30T02:00:55;100400.59;;;14.86;62.65
64889;BME280;51386;53.082;8.816;2023-03-30T02:03:26;100380.00;;;14.88;62.56
64889;BME280;51386;53.082;8.816;2023-03-30T02:06:00;100380.00;;;14.88;62.42
64889;BME280;51386;53.082;8.816;2023-03-30T02:08:32;100382.63;;;14.88;62.26
64889;BME280;51386;53.082;8.816;2023-03-30T02:11:02;100380.00;;;14.88;62.40
64889;BME280;51386;53.082;8.816;2023-03-30T02:13:31;100382.22;;;14.91;62.30
64889;BME280;51386;53.082;8.816;2023-03-30T02:16:03;100376.50;;;14.95;62.39
64889;BME280;51386;53.082;8.816;2023-03-30T02:18:34;100360.97;;;14.98;62.18
64889;BME280;51386;53.082;8.816;2023-03-30T02:21:01;100361.81;;;14.99;62.03
64889;BME280;51386;53.082;8.816;2023-03-30T02:23:34;100364.03;;;15.02;62.12
64889;BME280;51386;53.082;8.816;2023-03-30T02:26:04;100353.22;;;15.03;61.86
64889;BME280;51386;53.082;8.816;2023-03-30T02:28:33;100353.44;;;15.02;61.84
64889;BME280;51386;53.082;8.816;2023-03-30T02:31:02;100343.84;;;15.01;61.76
64889;BME280;51386;53.082;8.816;2023-03-30T02:33:42;100337.72;;;15.00;61.93
64889;BME280;51386;53.082;8.816;2023-03-30T02:36:35;100339.78;;;14.98;61.87
64889;BME280;51386;53.082;8.816;2023-03-30T02:39:20;100341.00;;;14.96;62.15
64889;BME280;51386;53.082;8.816;2023-03-30T02:42:20;100320.25;;;14.93;62.07
64889;BME280;51386;53.082;8.816;2023-03-30T02:45:16;100312.09;;;14.94;61.79
64889;BME280;51386;53.082;8.816;2023-03-30T02:47:59;100326.16;;;14.95;61.93
64889;BME280;51386;53.082;8.816;2023-03-30T02:50:39;100330.41;;;14.96;61.77
64889;BME280;51386;53.082;8.816;2023-03-30T02:53:20;100335.34;;;14.92;62.11
64889;BME280;51386;53.082;8.816;2023-03-30T02:56:01;100316.19;;;14.90;61.80
64889;BME280;51386;53.082;8.816;2023-03-30T02:58:41;100323.94;;;14.91;62.01
64889;BME280;51386;53.082;8.816;2023-03-30T03:01:16;100328.41;;;14.91;61.92
64889;BME280;51386;53.082;8.816;2023-03-30T03:03:47;100320.69;;;14.89;62.09
64889;BME280;51386;53.082;8.816;2023-03-30T03:06:16;100323.09;;;14.91;62.02
64889;BME280;51386;53.082;8.816;2023-03-30T03:08:44;100322.75;;;14.87;62.26
64889;BME280;51386;53.082;8.816;2023-03-30T03:11:14;100308.91;;;14.85;62.12
64889;BME280;51386;53.082;8.816;2023-03-30T03:13:42;100316.66;;;14.80;62.05
64889;BME280;51386;53.082;8.816;2023-03-30T03:16:12;100315.44;;;14.76;62.31
64889;BME280;51386;53.082;8.816;2023-03-30T03:18:40;100315.44;;;14.76;62.47
64889;BME280;51386;53.082;8.816;2023-03-30T03:21:11;100311.78;;;14.77;62.35
64889;BME280;51386;53.082;8.816;2023-03-30T03:23:39;100309.72;;;14.79;62.18
64889;BME280;51386;53.082;8.816;2023-03-30T03:26:08;100308.06;;;14.85;61.89
64889;BME280;51386;53.082;8.816;2023-03-30T03:28:35;100305.19;;;14.86;61.94
64889;BME280;51386;53.082;8.816;2023-03-30T03:31:03;100299.06;;;14.93;61.99
64889;BME280;51386;53.082;8.816;2023-03-30T03:33:32;100297.00;;;14.95;61.91
64889;BME280;51386;53.082;8.816;2023-03-30T03:35:59;100291.25;;;14.98;61.66
64889;BME280;51386;53.082;8.816;2023-03-30T03:38:27;100295.13;;;15.02;61.42
64889;BME280;51386;53.082;8.816;2023-03-30T03:40:57;100298.53;;;15.09;61.44
64889;BME280;51386;53.082;8.816;2023-03-30T03:43:25;100296.84;;;15.14;61.37
64889;BME280;51386;53.082;8.816;2023-03-30T03:45:52;100292.38;;;15.15;61.07
64889;BME280;51386;53.082;8.816;2023-03-30T03:48:23;100282.34;;;15.17;61.04
64889;BME280;51386;53.082;8.816;2023-03-30T03:50:51;100280.91;;;15.21;61.08
64889;BME280;51386;53.082;8.816;2023-03-30T03:53:20;100266.19;;;15.25;61.10
64889;BME280;51386;53.082;8.816;2023-03-30T03:55:47;100272.69;;;15.29;61.05
64889;BME280;51386;53.082;8.816;2023-03-30T03:58:15;100264.88;;;15.34;60.89
64889;BME280;51386;53.082;8.816;2023-03-30T04:00:42;100269.34;;;15.40;61.07
64889;BME280;51386;53.082;8.816;2023-03-30T04:03:09;100272.59;;;15.42;60.83
64889;BME280;51386;53.082;8.816;2023-03-30T04:05:39;100264.22;;;15.45;60.88
64889;BME280;51386;53.082;8.816;2023-03-30T04:08:08;100264.81;;;15.47;61.03
64889;BME280;51386;53.082;8.816;2023-03-30T04:10:37;100269.66;;;15.50;60.76
64889;BME280;51386;53.082;8.816;2023-03-30T04:13:05;100265.56;;;15.54;60.68
64889;BME280;51386;53.082;8.816;2023-03-30T04:15:32;100256.13;;;15.58;60.79
64889;BME280;51386;53.082;8.816;2023-03-30T04:17:59;100255.28;;;15.64;60.59
64889;BME280;51386;53.082;8.816;2023-03-30T04:20:28;100259.25;;;15.73;60.78
64889;BME280;51386;53.082;8.816;2023-03-30T04:22:57;100246.28;;;15.83;60.48
64889;BME280;51386;53.082;8.816;2023-03-30T04:25:27;100235.75;;;15.95;60.24
64889;BME280;51386;53.082;8.816;2023-03-30T04:27:55;100224.00;;;16.02;60.04
64889;BME280;51386;53.082;8.816;2023-03-30T04:30:23;100218.84;;;16.07;59.88
64889;BME280;51386;53.082;8.816;2023-03-30T04:32:50;100223.72;;;16.10;59.71
64889;BME280;51386;53.082;8.816;2023-03-30T04:35:30;100230.66;;;16.11;59.62
64889;BME280;51386;53.082;8.816;2023-03-30T04:37:59;100230.19;;;16.14;59.49
64889;BME280;51386;53.082;8.816;2023-03-30T04:40:28;100237.13;;;16.15;59.33
64889;BME280;51386;53.082;8.816;2023-03-30T04:42:55;100241.41;;;16.16;59.32
64889;BME280;51386;53.082;8.816;2023-03-30T04:45:28;100239.94;;;16.20;59.57
64889;BME280;51386;53.082;8.816;2023-03-30T04:47:55;100234.19;;;16.23;59.23
64889;BME280;51386;53.082;8.816;2023-03-30T04:50:22;100232.69;;;16.27;59.28
64889;BME280;51386;53.082;8.816;2023-03-30T04:52:49;100232.03;;;16.32;58.73
64889;BME280;51386;53.082;8.816;2023-03-30T04:55:18;100217.69;;;16.33;58.99
64889;BME280;51386;53.082;8.816;2023-03-30T04:57:45;100218.06;;;16.37;58.63
64889;BME280;51386;53.082;8.816;2023-03-30T05:00:13;100220.03;;;16.41;58.62
64889;BME280;51386;53.082;8.816;2023-03-30T05:02:40;100224.91;;;16.44;58.29
64889;BME280;51386;53.082;8.816;2023-03-30T05:05:08;100221.44;;;16.44;58.16
64889;BME280;51386;53.082;8.816;2023-03-30T05:07:35;100224.09;;;16.44;58.02
64889;BME280;51386;53.082;8.816;2023-03-30T05:10:02;100229.41;;;16.44;57.44
64889;BME280;51386;53.082;8.816;2023-03-30T05:12:30;100231.81;;;16.45;57.70
64889;BME280;51386;53.082;8.816;2023-03-30T05:14:57;100235.88;;;16.48;57.33
64889;BME280;51386;53.082;8.816;2023-03-30T05:17:24;100216.63;;;16.52;57.55
64889;BME280;51386;53.082;8.816;2023-03-30T05:19:52;100217.84;;;16.56;57.23
64889;BME280;51386;53.082;8.816;2023-03-30T05:22:20;100226.72;;;16.62;57.08
64889;BME280;51386;53.082;8.816;2023-03-30T05:24:47;100225.84;;;16.68;57.05
64889;BME280;51386;53.082;8.816;2023-03-30T05:27:14;100221.22;;;16.75;56.90
64889;BME280;51386;53.082;8.816;2023-03-30T05:29:43;100207.25;;;16.79;56.37
64889;BME280;51386;53.082;8.816;2023-03-30T05:32:10;100204.72;;;16.84;56.36
64889;BME280;51386;53.082;8.816;2023-03-30T05:34:37;100196.50;;;16.86;55.93
64889;BME280;51386;53.082;8.816;2023-03-30T05:37:04;100193.84;;;16.86;55.72
64889;BME280;51386;53.082;8.816;2023-03-30T05:39:31;100203.47;;;16.87;55.70
64889;BME280;51386;53.082;8.816;2023-03-30T05:41:58;100196.50;;;16.86;55.51
64889;BME280;51386;53.082;8.816;2023-03-30T05:44:25;100195.25;;;16.88;55.49
64889;BME280;51386;53.082;8.816;2023-03-30T05:46:53;100202.19;;;16.89;55.47
64889;BME280;51386;53.082;8.816;2023-03-30T05:49:20;100195.81;;;16.90;55.16
64889;BME280;51386;53.082;8.816;2023-03-30T05:51:47;100195.63;;;16.92;54.96
64889;BME280;51386;53.082;8.816;2023-03-30T05:54:14;100191.44;;;16.96;54.87
64889;BME280;51386;53.082;8.816;2023-03-30T05:56:41;100196.44;;;17.04;55.09
64889;BME280;51386;53.082;8.816;2023-03-30T05:59:09;100197.84;;;17.07;54.73
64889;BME280;51386;53.082;8.816;2023-03-30T06:01:36;100200.59;;;17.12;54.43
64889;BME280;51386;53.082;8.816;2023-03-30T06:04:05;100201.97;;;17.14;54.33
64889;BME280;51386;53.082;8.816;2023-03-30T06:06:33;100208.94;;;17.15;54.23
64889;BME280;51386;53.082;8.816;2023-03-30T06:09:00;100198.41;;;17.20;54.37
64889;BME280;51386;53.082;8.816;2023-03-30T06:11:28;100195.75;;;17.20;53.96
64889;BME280;51386;53.082;8.816;2023-03-30T06:13:55;100184.66;;;17.23;53.93
64889;BME280;51386;53.082;8.816;2023-03-30T06:16:23;100186.03;;;17.26;53.75
64889;BME280;51386;53.082;8.816;2023-03-30T06:18:50;100185.94;;;17.32;53.84
64889;BME280;51386;53.082;8.816;2023-03-30T06:21:19;100195.63;;;17.38;53.83
64889;BME280;51386;53.082;8.816;2023-03-30T06:23:46;100200.50;;;17.41;53.54
64889;BME280;51386;53.082;8.816;2023-03-30T06:26:14;100188.56;;;17.44;53.69
64889;BME280;51386;53.082;8.816;2023-03-30T06:28:41;100197.84;;;17.53;53.58
64889;BME280;51386;53.082;8.816;2023-03-30T06:31:10;100191.47;;;17.66;53.36
64889;BME280;51386;53.082;8.816;2023-03-30T06:33:37;100194.00;;;17.72;53.18
64889;BME280;51386;53.082;8.816;2023-03-30T06:36:10;100198.16;;;17.80;52.79
64889;BME280;51386;53.082;8.816;2023-03-30T06:38:39;100212.72;;;17.89;52.82
64889;BME280;51386;53.082;8.816;2023-03-30T06:41:07;100198.25;;;17.96;52.64
64889;BME280;51386;53.082;8.816;2023-03-30T06:43:36;100202.97;;;18.06;52.63
64889;BME280;51386;53.082;8.816;2023-03-30T06:46:04;100203.63;;;18.13;52.43
64889;BME280;51386;53.082;8.816;2023-03-30T06:48:31;100199.63;;;18.27;52.38
64889;BME280;51386;53.082;8.816;2023-03-30T06:50:58;100200.97;;;18.41;52.21
64889;BME280;51386;53.082;8.816;2023-03-30T06:53:26;100201.28;;;18.56;51.86
64889;BME280;51386;53.082;8.816;2023-03-30T06:55:57;100198.78;;;18.66;51.89
64889;BME280;51386;53.082;8.816;2023-03-30T06:58:26;100192.03;;;18.75;51.28
64889;BME280;51386;53.082;8.816;2023-03-30T07:00:53;100183.13;;;18.86;51.18
64889;BME280;51386;53.082;8.816;2023-03-30T07:03:21;100183.78;;;18.93;50.57
64889;BME280;51386;53.082;8.816;2023-03-30T07:05:49;100191.88;;;18.99;50.60
64889;BME280;51386;53.082;8.816;2023-03-30T07:08:17;100189.50;;;19.02;50.39
64889;BME280;51386;53.082;8.816;2023-03-30T07:10:46;100181.84;;;19.06;50.32
64889;BME280;51386;53.082;8.816;2023-03-30T07:13:16;100181.34;;;19.09;50.40
64889;BME280;51386;53.082;8.816;2023-03-30T07:15:44;100181.03;;;19.05;50.32
64889;BME280;51386;53.082;8.816;2023-03-30T07:18:13;100183.94;;;19.04;50.07
64889;BME280;51386;53.082;8.816;2023-03-30T07:20:40;100180.94;;;19.00;50.38
64889;BME280;51386;53.082;8.816;2023-03-30T07:23:07;100191.38;;;19.02;50.00
64889;BME280;51386;53.082;8.816;2023-03-30T07:25:36;100189.28;;;19.04;50.03
64889;BME280;51386;53.082;8.816;2023-03-30T07:28:03;100190.41;;;19.08;50.24
64889;BME280;51386;53.082;8.816;2023-03-30T07:30:34;100190.41;;;19.08;49.92
64889;BME280;51386;53.082;8.816;2023-03-30T07:33:01;100203.19;;;19.06;49.90
64889;BME280;51386;53.082;8.816;2023-03-30T07:35:29;100192.44;;;19.01;50.13
64889;BME280;51386;53.082;8.816;2023-03-30T07:37:56;100198.41;;;19.08;50.33
64889;BME280;51386;53.082;8.816;2023-03-30T07:40:29;100196.03;;;19.11;50.10
64889;BME280;51386;53.082;8.816;2023-03-30T07:42:57;100199.53;;;19.12;50.47
64889;BME280;51386;53.082;8.816;2023-03-30T07:45:24;100195.91;;;19.18;50.25
64889;BME280;51386;53.082;8.816;2023-03-30T07:47:54;100200.59;;;19.44;50.45
64889;BME280;51386;53.082;8.816;2023-03-30T07:50:21;100189.91;;;19.82;49.46
64889;BME280;51386;53.082;8.816;2023-03-30T07:52:51;100186.81;;;20.39;49.21
64889;BME280;51386;53.082;8.816;2023-03-30T07:55:18;100192.41;;;21.32;47.82
64889;BME280;51386;53.082;8.816;2023-03-30T07:57:45;100190.25;;;22.48;46.60
64889;BME280;51386;53.082;8.816;2023-03-30T08:00:16;100183.59;;;23.01;43.53
64889;BME280;51386;53.082;8.816;2023-03-30T08:02:44;100185.75;;;23.09;42.85
64889;BME280;51386;53.082;8.816;2023-03-30T08:05:13;100184.16;;;23.08;42.48
64889;BME280;51386;53.082;8.816;2023-03-30T08:07:41;100186.78;;;23.18;42.32
64889;BME280;51386;53.082;8.816;2023-03-30T08:10:09;100189.47;;;23.28;41.79
64889;BME280;51386;53.082;8.816;2023-03-30T08:12:37;100188.69;;;23.38;41.85
64889;BME280;51386;53.082;8.816;2023-03-30T08:15:05;100188.06;;;23.71;41.33
64889;BME280;51386;53.082;8.816;2023-03-30T08:17:32;100188.00;;;23.91;41.03
64889;BME280;51386;53.082;8.816;2023-03-30T08:19:59;100192.59;;;23.81;40.14
64889;BME280;51386;53.082;8.816;2023-03-30T08:22:28;100195.91;;;23.52;40.41
64889;BME280;51386;53.082;8.816;2023-03-30T08:24:56;100187.31;;;23.25;40.93
64889;BME280;51386;53.082;8.816;2023-03-30T08:27:23;100196.22;;;23.01;41.58
64889;BME280;51386;53.082;8.816;2023-03-30T08:29:50;100195.66;;;22.68;41.52
64889;BME280;51386;53.082;8.816;2023-03-30T08:32:20;100199.63;;;22.36;42.27
64889;BME280;51386;53.082;8.816;2023-03-30T08:34:47;100205.72;;;22.16;42.43
64889;BME280;51386;53.082;8.816;2023-03-30T08:37:14;100206.25;;;22.08;42.87
64889;BME280;51386;53.082;8.816;2023-03-30T08:39:42;100208.88;;;21.93;43.00
64889;BME280;51386;53.082;8.816;2023-03-30T08:42:35;100213.31;;;21.72;43.40
64889;BME280;51386;53.082;8.816;2023-03-30T08:45:08;100207.19;;;21.82;43.33
64889;BME280;51386;53.082;8.816;2023-03-30T08:47:41;100203.41;;;21.83;43.16
64889;BME280;51386;53.082;8.816;2023-03-30T08:50:15;100213.06;;;21.79;43.18
64889;BME280;51386;53.082;8.816;2023-03-30T08:52:42;100214.63;;;21.70;43.44
64889;BME280;51386;53.082;8.816;2023-03-30T08:55:21;100206.00;;;21.63;43.35
64889;BME280;51386;53.082;8.816;2023-03-30T08:57:54;100205.97;;;21.57;43.41
64889;BME280;51386;53.082;8.816;2023-03-30T09:00:32;100204.41;;;21.67;43.59
64889;BME280;51386;53.082;8.816;2023-03-30T09:03:14;100201.53;;;22.50;42.85
64889;BME280;51386;53.082;8.816;2023-03-30T09:05:50;100211.69;;;23.79;40.74
64889;BME280;51386;53.082;8.816;2023-03-30T09:08:23;100193.72;;;25.06;38.79
64889;BME280;51386;53.082;8.816;2023-03-30T09:11:00;100200.91;;;25.92;35.65
64889;BME280;51386;53.082;8.816;2023-03-30T09:13:31;100191.44;;;26.18;34.84
64889;BME280;51386;53.082;8.816;2023-03-30T09:16:10;100192.59;;;26.86;33.56
64889;BME280;51386;53.082;8.816;2023-03-30T09:18:43;100186.38;;;27.32;32.57
64889;BME280;51386;53.082;8.816;2023-03-30T09:21:12;100186.34;;;28.05;31.88
64889;BME280;51386;53.082;8.816;2023-03-30T09:23:40;100194.94;;;28.56;30.38
64889;BME280;51386;53.082;8.816;2023-03-30T09:26:19;100186.88;;;29.09;30.44
64889;BME280;51386;53.082;8.816;2023-03-30T09:28:58;100191.03;;;29.77;28.52
64889;BME280;51386;53.082;8.816;2023-03-30T09:31:34;100187.59;;;30.19;28.55
64889;BME280;51386;53.082;8.816;2023-03-30T09:34:23;100195.94;;;30.83;27.06
64889;BME280;51386;53.082;8.816;2023-03-30T09:36:56;100198.00;;;31.11;26.38
64889;BME280;51386;53.082;8.816;2023-03-30T09:39:25;100206.72;;;31.34;25.61
64889;BME280;51386;53.082;8.816;2023-03-30T09:42:13;100210.53;;;31.41;25.60
64889;BME280;51386;53.082;8.816;2023-03-30T09:44:50;100195.59;;;31.10;25.58
64889;BME280;51386;53.082;8.816;2023-03-30T09:47:32;100198.19;;;30.80;25.90
64889;BME280;51386;53.082;8.816;2023-03-30T09:50:05;100194.66;;;30.71;25.33
64889;BME280;51386;53.082;8.816;2023-03-30T09:52:36;100211.00;;;30.37;25.66
64889;BME280;51386;53.082;8.816;2023-03-30T09:55:28;100201.78;;;29.51;26.09
64889;BME280;51386;53.082;8.816;2023-03-30T09:58:12;100201.56;;;28.64;27.11
64889;BME280;51386;53.082;8.816;2023-03-30T10:00:39;100205.28;;;27.78;28.13
64889;BME280;51386;53.082;8.816;2023-03-30T10:03:18;100204.72;;;27.35;29.13
64889;BME280;51386;53.082;8.816;2023-03-30T10:06:02;100191.44;;;27.52;29.41
64889;BME280;51386;53.082;8.816;2023-03-30T10:08:32;100193.63;;;27.91;28.61
64889;BME280;51386;53.082;8.816;2023-03-30T10:11:09;100204.94;;;28.56;28.25
64889;BME280;51386;53.082;8.816;2023-03-30T10:13:41;100199.66;;;29.17;27.69
64889;BME280;51386;53.082;8.816;2023-03-30T10:16:22;100206.88;;;29.83;26.60
64889;BME280;51386;53.082;8.816;2023-03-30T10:18:53;100201.22;;;30.28;25.50
64889;BME280;51386;53.082;8.816;2023-03-30T10:21:22;100187.44;;;30.07;26.43
64889;BME280;51386;53.082;8.816;2023-03-30T10:24:02;100186.84;;;29.71;26.32
64889;BME280;51386;53.082;8.816;2023-03-30T10:26:30;100182.66;;;29.65;26.97
64889;BME280;51386;53.082;8.816;2023-03-30T10:29:04;100185.41;;;29.73;27.31
64889;BME280;51386;53.082;8.816;2023-03-30T10:31:35;100196.88;;;29.62;26.60
64889;BME280;51386;53.082;8.816;2023-03-30T10:34:12;100182.34;;;28.74;26.91
64889;BME280;51386;53.082;8.816;2023-03-30T10:36:40;100196.34;;;27.77;28.73
64889;BME280;51386;53.082;8.816;2023-03-30T10:39:13;100198.59;;;26.83;29.64
64889;BME280;51386;53.082;8.816;2023-03-30T10:41:46;100218.88;;;26.01;30.70
64889;BME280;51386;53.082;8.816;2023-03-30T10:44:21;100221.91;;;25.19;33.71
64889;BME280;51386;53.082;8.816;2023-03-30T10:46:55;100248.53;;;24.48;35.51
64889;BME280;51386;53.082;8.816;2023-03-30T10:49:41;100261.97;;;23.74;37.73
64889;BME280;51386;53.082;8.816;2023-03-30T10:52:22;100265.25;;;23.10;38.70
64889;BME280;51386;53.082;8.816;2023-03-30T10:55:01;100246.06;;;22.56;39.39
64889;BME280;51386;53.082;8.816;2023-03-30T10:57:45;100251.84;;;22.18;40.26
64889;BME280;51386;53.082;8.816;2023-03-30T11:00:30;100248.28;;;21.97;40.75
64889;BME280;51386;53.082;8.816;2023-03-30T11:03:07;100259.50;;;21.84;40.58
64889;BME280;51386;53.082;8.816;2023-03-30T11:05:43;100260.25;;;21.80;40.70
64889;BME280;51386;53.082;8.816;2023-03-30T11:08:18;100264.09;;;21.94;40.51
64889;BME280;51386;53.082;8.816;2023-03-30T11:10:49;100261.59;;;22.39;39.92
64889;BME280;51386;53.082;8.816;2023-03-30T11:13:23;100262.81;;;23.34;38.20
64889;BME280;51386;53.082;8.816;2023-03-30T11:15:56;100267.09;;;23.65;37.47
64889;BME280;51386;53.082;8.816;2023-03-30T11:18:31;100257.41;;;23.74;36.88
64889;BME280;51386;53.082;8.816;2023-03-30T11:21:05;100266.25;;;23.80;36.25
64889;BME280;51386;53.082;8.816;2023-03-30T11:23:44;100266.50;;;23.83;35.20
64889;BME280;51386;53.082;8.816;2023-03-30T11:26:21;100268.56;;;24.21;34.60
64889;BME280;51386;53.082;8.816;2023-03-30T11:29:00;100268.44;;;24.96;33.68
64889;BME280;51386;53.082;8.816;2023-03-30T11:32:00;100259.97;;;25.12;32.48
64889;BME280;51386;53.082;8.816;2023-03-30T11:34:44;100254.06;;;25.10;33.22
64889;BME280;51386;53.082;8.816;2023-03-30T11:37:22;100271.03;;;24.67;33.25
64889;BME280;51386;53.082;8.816;2023-03-30T11:40:00;100247.63;;;24.08;33.89
64889;BME280;51386;53.082;8.816;2023-03-30T11:42:35;100258.78;;;23.62;34.54
64889;BME280;51386;53.082;8.816;2023-03-30T11:45:16;100266.84;;;23.16;35.29
64889;BME280;51386;53.082;8.816;2023-03-30T11:48:14;100262.78;;;22.83;36.00
64889;BME280;51386;53.082;8.816;2023-03-30T11:51:04;100284.22;;;22.63;36.23
64889;BME280;51386;53.082;8.816;2023-03-30T11:53:48;100280.38;;;22.44;36.58
64889;BME280;51386;53.082;8.816;2023-03-30T11:56:29;100279.81;;;22.37;37.03
64889;BME280;51386;53.082;8.816;2023-03-30T11:59:06;100284.63;;;22.35;37.24
64889;BME280;51386;53.082;8.816;2023-03-30T12:02:02;100277.59;;;22.19;37.37
64889;BME280;51386;53.082;8.816;2023-03-30T12:04:41;100288.56;;;22.12;37.29
64889;BME280;51386;53.082;8.816;2023-03-30T12:07:26;100293.59;;;21.99;37.61
64889;BME280;51386;53.082;8.816;2023-03-30T12:10:11;100298.81;;;21.79;37.69
64889;BME280;51386;53.082;8.816;2023-03-30T12:12:44;100288.53;;;21.61;37.96
64889;BME280;51386;53.082;8.816;2023-03-30T12:15:31;100292.56;;;21.68;38.40
64889;BME280;51386;53.082;8.816;2023-03-30T12:18:14;100284.56;;;22.15;37.68
64889;BME280;51386;53.082;8.816;2023-03-30T12:20:53;100286.44;;;22.92;37.16
64889;BME280;51386;53.082;8.816;2023-03-30T12:23:34;100280.03;;;23.48;36.36
64889;BME280;51386;53.082;8.816;2023-03-30T12:26:24;100295.06;;;23.59;35.58
64889;BME280;51386;53.082;8.816;2023-03-30T12:28:58;100309.88;;;23.36;35.47
64889;BME280;51386;53.082;8.816;2023-03-30T12:31:50;100297.69;;;22.83;35.26
64889;BME280;51386;53.082;8.816;2023-03-30T12:34:32;100299.16;;;22.49;35.91
64889;BME280;51386;53.082;8.816;2023-03-30T12:37:05;100308.47;;;22.21;37.16
64889;BME280;51386;53.082;8.816;2023-03-30T12:39:42;100306.97;;;21.94;37.42
64889;BME280;51386;53.082;8.816;2023-03-30T12:42:22;100301.69;;;21.67;38.10
64889;BME280;51386;53.082;8.816;2023-03-30T12:45:20;100302.28;;;21.42;38.02
64889;BME280;51386;53.082;8.816;2023-03-30T12:48:10;100298.66;;;21.58;37.98
64889;BME280;51386;53.082;8.816;2023-03-30T12:50:59;100294.97;;;22.06;37.74
64889;BME280;51386;53.082;8.816;2023-03-30T12:53:56;100280.38;;;22.44;36.37
64889;BME280;51386;53.082;8.816;2023-03-30T12:56:36;100290.19;;;23.21;35.65
64889;BME280;51386;53.082;8.816;2023-03-30T12:59:49;100289.66;;;23.84;34.68
64889;BME280;51386;53.082;8.816;2023-03-30T13:02:49;100284.56;;;24.52;33.03
64889;BME280;51386;53.082;8.816;2023-03-30T13:05:25;100287.91;;;25.21;32.64
64889;BME280;51386;53.082;8.816;2023-03-30T13:08:02;100285.38;;;25.64;30.13
64889;BME280;51386;53.082;8.816;2023-03-30T13:10:38;100282.19;;;25.85;30.38
64889;BME280;51386;53.082;8.816;2023-03-30T13:13:20;100274.22;;;25.99;29.92
64889;BME280;51386;53.082;8.816;2023-03-30T13:15:51;100265.50;;;25.83;30.85
64889;BME280;51386;53.082;8.816;2023-03-30T13:18:39;100270.91;;;25.54;30.23
64889;BME280;51386;53.082;8.816;2023-03-30T13:21:21;100273.03;;;25.29;30.34
64889;BME280;51386;53.082;8.816;2023-03-30T13:24:25;100259.63;;;24.85;30.91